sensor_id;sensor_type;location;lat;lon;timestamp;P1;durP1;ratioP1;P2;durP2;ratioP2
74152;SDS011;62505;46.070;14.492;2023-06-05T00:00:03;8.50;;;4.22;;
74152;SDS011;62505;46.070;14.492;2023-06-05T00:02:32;4.40;;;3.42;;
74152;SDS011;62505;46.070;14.492;2023-06-05T00:04:58;4.95;;;3.22;;
74152;SDS011;62505;46.070;14.492;2023-06-05T00:07:26;6.03;;;3.65;;
74152;SDS011;62505;46.070;14.492;2023-06-05T00:09:54;6.60;;;3.30;;
74152;SDS011;62505;46.070;14.492;2023-06-05T00:12:21;5.30;;;3.13;;
74152;SDS011;62505;46.070;14.492;2023-06-05T00:14:48;4.88;;;3.05;;
74152;SDS011;62505;46.070;14.492;2023-06-05T00:17:15;5.28;;;3.10;;
74152;SDS011;62505;46.070;14.492;2023-06-05T00:19:42;4.25;;;2.90;;
74152;SDS011;62505;46.070;14.492;2023-06-05T00:22:09;4.00;;;3.25;;
74152;SDS011;62505;46.070;14.492;2023-06-05T00:24:36;3.80;;;3.00;;
74152;SDS011;62505;46.070;14.492;2023-06-05T00:27:05;3.95;;;2.88;;
74152;SDS011;62505;46.070;14.492;2023-06-05T00:29:32;6.60;;;3.28;;
74152;SDS011;62505;46.070;14.492;2023-06-05T00:31:59;3.63;;;2.83;;
74152;SDS011;62505;46.070;14.492;2023-06-05T00:34:26;3.40;;;2.92;;
74152;SDS011;62505;46.070;14.492;2023-06-05T00:36:53;4.82;;;3.50;;
74152;SDS011;62505;46.070;14.492;2023-06-05T00:39:20;5.80;;;3.20;;
74152;SDS011;62505;46.070;14.492;2023-06-05T00:41:47;2.95;;;2.65;;
74152;SDS011;62505;46.070;14.492;2023-06-05T00:44:17;4.53;;;3.00;;
74152;SDS011;62505;46.070;14.492;2023-06-05T00:46:44;3.83;;;3.20;;
74152;SDS011;62505;46.070;14.492;2023-06-05T00:49:14;4.22;;;3.53;;
74152;SDS011;62505;46.070;14.492;2023-06-05T00:51:41;5.43;;;3.00;;
74152;SDS011;62505;46.070;14.492;2023-06-05T00:54:10;3.67;;;2.80;;
74152;SDS011;62505;46.070;14.492;2023-06-05T00:56:38;4.82;;;3.60;;
74152;SDS011;62505;46.070;14.492;2023-06-05T00:59:07;4.57;;;3.10;;
74152;SDS011;62505;46.070;14.492;2023-06-05T01:01:35;5.95;;;3.42;;
74152;SDS011;62505;46.070;14.492;2023-06-05T01:04:03;3.88;;;3.22;;
74152;SDS011;62505;46.070;14.492;2023-06-05T01:06:30;3.45;;;2.78;;
74152;SDS011;62505;46.070;14.492;2023-06-05T01:08:59;5.35;;;3.13;;
74152;SDS011;62505;46.070;14.492;2023-06-05T01:11:28;7.00;;;3.17;;
74152;SDS011;62505;46.070;14.492;2023-06-05T01:14:00;4.25;;;3.42;;
74152;SDS011;62505;46.070;14.492;2023-06-05T01:16:37;5.05;;;3.58;;
74152;SDS011;62505;46.070;14.492;2023-06-05T01:19:05;6.78;;;3.25;;
74152;SDS011;62505;46.070;14.492;2023-06-05T01:21:35;5.05;;;3.35;;
74152;SDS011;62505;46.070;14.492;2023-06-05T01:24:04;4.45;;;3.72;;
74152;SDS011;62505;46.070;14.492;2023-06-05T01:26:33;3.72;;;3.28;;
74152;SDS011;62505;46.070;14.492;2023-06-05T01:29:08;4.75;;;3.47;;
74152;SDS011;62505;46.070;14.492;2023-06-05T01:31:38;4.40;;;3.15;;
74152;SDS011;62505;46.070;14.492;2023-06-05T01:34:08;4.65;;;3.60;;
74152;SDS011;62505;46.070;14.492;2023-06-05T01:36:38;4.70;;;3.70;;
74152;SDS011;62505;46.070;14.492;2023-06-05T01:39:08;4.18;;;3.08;;
74152;SDS011;62505;46.070;14.492;2023-06-05T01:41:35;4.00;;;3.15;;
74152;SDS011;62505;46.070;14.492;2023-06-05T01:44:04;3.75;;;3.03;;
74152;SDS011;62505;46.070;14.492;2023-06-05T01:46:33;4.43;;;3.00;;
74152;SDS011;62505;46.070;14.492;2023-06-05T01:49:00;5.13;;;3.58;;
74152;SDS011;62505;46.070;14.492;2023-06-05T01:51:28;4.03;;;3.13;;
74152;SDS011;62505;46.070;14.492;2023-06-05T01:53:55;4.28;;;2.88;;
74152;SDS011;62505;46.070;14.492;2023-06-05T01:56:24;3.72;;;3.22;;
74152;SDS011;62505;46.070;14.492;2023-06-05T01:58:52;4.68;;;3.40;;
74152;SDS011;62505;46.070;14.492;2023-06-05T02:01:19;4.90;;;3.13;;
74152;SDS011;62505;46.070;14.492;2023-06-05T02:03:48;3.90;;;3.35;;
74152;SDS011;62505;46.070;14.492;2023-06-05T02:06:15;3.92;;;3.08;;
74152;SDS011;62505;46.070;14.492;2023-06-05T02:08:42;5.72;;;3.22;;
74152;SDS011;62505;46.070;14.492;2023-06-05T02:11:09;4.30;;;3.17;;
74152;SDS011;62505;46.070;14.492;2023-06-05T02:13:38;4.47;;;3.00;;
74152;SDS011;62505;46.070;14.492;2023-06-05T02:16:09;3.47;;;2.83;;
74152;SDS011;62505;46.070;14.492;2023-06-05T02:18:39;5.13;;;3.08;;
74152;SDS011;62505;46.070;14.492;2023-06-05T02:21:06;8.43;;;3.28;;
74152;SDS011;62505;46.070;14.492;2023-06-05T02:23:33;5.38;;;3.28;;
74152;SDS011;62505;46.070;14.492;2023-06-05T02:26:00;5.35;;;3.85;;
74152;SDS011;62505;46.070;14.492;2023-06-05T02:28:27;6.30;;;3.13;;
74152;SDS011;62505;46.070;14.492;2023-06-05T02:30:55;7.05;;;3.80;;
74152;SDS011;62505;46.070;14.492;2023-06-05T02:33:22;4.47;;;3.20;;
74152;SDS011;62505;46.070;14.492;2023-06-05T02:35:49;4.15;;;3.60;;
74152;SDS011;62505;46.070;14.492;2023-06-05T02:38:17;6.40;;;3.58;;
74152;SDS011;62505;46.070;14.492;2023-06-05T02:40:43;4.18;;;3.45;;
74152;SDS011;62505;46.070;14.492;2023-06-05T02:43:11;4.32;;;3.22;;
74152;SDS011;62505;46.070;14.492;2023-06-05T02:45:39;6.40;;;3.13;;
74152;SDS011;62505;46.070;14.492;2023-06-05T02:48:07;5.03;;;3.47;;
74152;SDS011;62505;46.070;14.492;2023-06-05T02:50:34;4.82;;;3.50;;
74152;SDS011;62505;46.070;14.492;2023-06-05T02:53:01;4.82;;;3.53;;
74152;SDS011;62505;46.070;14.492;2023-06-05T02:55:28;5.63;;;3.35;;
74152;SDS011;62505;46.070;14.492;2023-06-05T02:57:57;5.05;;;3.60;;
74152;SDS011;62505;46.070;14.492;2023-06-05T03:00:24;5.55;;;3.75;;
74152;SDS011;62505;46.070;14.492;2023-06-05T03:02:51;6.25;;;3.65;;
74152;SDS011;62505;46.070;14.492;2023-06-05T03:05:19;4.88;;;3.30;;
74152;SDS011;62505;46.070;14.492;2023-06-05T03:07:49;5.75;;;3.28;;
74152;SDS011;62505;46.070;14.492;2023-06-05T03:10:18;5.32;;;3.72;;
74152;SDS011;62505;46.070;14.492;2023-06-05T03:12:46;5.85;;;3.72;;
74152;SDS011;62505;46.070;14.492;2023-06-05T03:15:13;6.57;;;3.63;;
74152;SDS011;62505;46.070;14.492;2023-06-05T03:17:42;4.32;;;3.45;;
74152;SDS011;62505;46.070;14.492;2023-06-05T03:20:10;5.07;;;3.28;;
74152;SDS011;62505;46.070;14.492;2023-06-05T03:22:39;4.15;;;3.35;;
74152;SDS011;62505;46.070;14.492;2023-06-05T03:25:06;4.70;;;3.33;;
74152;SDS011;62505;46.070;14.492;2023-06-05T03:27:34;4.88;;;3.38;;
74152;SDS011;62505;46.070;14.492;2023-06-05T03:30:01;5.40;;;3.80;;
74152;SDS011;62505;46.070;14.492;2023-06-05T03:32:28;4.78;;;3.88;;
74152;SDS011;62505;46.070;14.492;2023-06-05T03:34:57;7.43;;;3.50;;
74152;SDS011;62505;46.070;14.492;2023-06-05T03:37:24;6.28;;;4.15;;
74152;SDS011;62505;46.070;14.492;2023-06-05T03:39:52;4.32;;;3.70;;
74152;SDS011;62505;46.070;14.492;2023-06-05T03:42:19;4.88;;;3.40;;
74152;SDS011;62505;46.070;14.492;2023-06-05T03:44:46;4.72;;;3.67;;
74152;SDS011;62505;46.070;14.492;2023-06-05T03:47:12;5.13;;;3.90;;
74152;SDS011;62505;46.070;14.492;2023-06-05T03:49:40;5.20;;;3.67;;
74152;SDS011;62505;46.070;14.492;2023-06-05T03:52:11;4.35;;;3.65;;
74152;SDS011;62505;46.070;14.492;2023-06-05T03:54:39;6.55;;;3.70;;
74152;SDS011;62505;46.070;14.492;2023-06-05T03:57:12;4.53;;;3.38;;
74152;SDS011;62505;46.070;14.492;2023-06-05T03:59:39;5.53;;;3.53;;
74152;SDS011;62505;46.070;14.492;2023-06-05T04:02:06;5.78;;;4.35;;
74152;SDS011;62505;46.070;14.492;2023-06-05T04:04:33;6.00;;;4.03;;
74152;SDS011;62505;46.070;14.492;2023-06-05T04:07:00;4.43;;;3.60;;
74152;SDS011;62505;46.070;14.492;2023-06-05T04:09:27;7.03;;;3.75;;
74152;SDS011;62505;46.070;14.492;2023-06-05T04:11:54;5.22;;;3.80;;
74152;SDS011;62505;46.070;14.492;2023-06-05T04:14:23;5.65;;;4.18;;
74152;SDS011;62505;46.070;14.492;2023-06-05T04:16:49;5.38;;;4.30;;
74152;SDS011;62505;46.070;14.492;2023-06-05T04:19:17;5.97;;;3.83;;
74152;SDS011;62505;46.070;14.492;2023-06-05T04:21:43;5.93;;;4.15;;
74152;SDS011;62505;46.070;14.492;2023-06-05T04:24:10;5.05;;;4.07;;
74152;SDS011;62505;46.070;14.492;2023-06-05T04:26:38;5.15;;;3.88;;
74152;SDS011;62505;46.070;14.492;2023-06-05T04:29:06;5.32;;;4.07;;
74152;SDS011;62505;46.070;14.492;2023-06-05T04:31:39;5.75;;;3.83;;
74152;SDS011;62505;46.070;14.492;2023-06-05T04:34:07;6.78;;;3.90;;
74152;SDS011;62505;46.070;14.492;2023-06-05T04:36:34;5.18;;;3.95;;
74152;SDS011;62505;46.070;14.492;2023-06-05T04:39:01;6.53;;;4.10;;
74152;SDS011;62505;46.070;14.492;2023-06-05T04:41:29;8.10;;;3.72;;
74152;SDS011;62505;46.070;14.492;2023-06-05T04:43:57;5.60;;;3.80;;
74152;SDS011;62505;46.070;14.492;2023-06-05T04:46:25;5.32;;;3.85;;
74152;SDS011;62505;46.070;14.492;2023-06-05T04:48:53;5.75;;;4.30;;
74152;SDS011;62505;46.070;14.492;2023-06-05T04:51:22;4.05;;;3.58;;
74152;SDS011;62505;46.070;14.492;2023-06-05T04:53:49;5.03;;;3.75;;
74152;SDS011;62505;46.070;14.492;2023-06-05T04:56:17;5.43;;;4.03;;
74152;SDS011;62505;46.070;14.492;2023-06-05T04:58:46;4.22;;;3.83;;
74152;SDS011;62505;46.070;14.492;2023-06-05T05:01:15;6.47;;;4.30;;
74152;SDS011;62505;46.070;14.492;2023-06-05T05:03:42;4.50;;;3.67;;
74152;SDS011;62505;46.070;14.492;2023-06-05T05:06:13;6.80;;;4.00;;
74152;SDS011;62505;46.070;14.492;2023-06-05T05:08:41;4.70;;;4.07;;
74152;SDS011;62505;46.070;14.492;2023-06-05T05:11:13;5.22;;;3.90;;
74152;SDS011;62505;46.070;14.492;2023-06-05T05:13:40;5.78;;;3.75;;
74152;SDS011;62505;46.070;14.492;2023-06-05T05:16:07;4.57;;;4.15;;
74152;SDS011;62505;46.070;14.492;2023-06-05T05:18:34;5.43;;;3.72;;
74152;SDS011;62505;46.070;14.492;2023-06-05T05:21:02;5.30;;;3.90;;
74152;SDS011;62505;46.070;14.492;2023-06-05T05:23:31;6.20;;;4.47;;
74152;SDS011;62505;46.070;14.492;2023-06-05T05:25:58;6.72;;;4.13;;
74152;SDS011;62505;46.070;14.492;2023-06-05T05:28:26;4.65;;;3.70;;
74152;SDS011;62505;46.070;14.492;2023-06-05T05:30:53;5.10;;;4.10;;
74152;SDS011;62505;46.070;14.492;2023-06-05T05:33:22;7.53;;;4.05;;
74152;SDS011;62505;46.070;14.492;2023-06-05T05:35:49;5.18;;;4.15;;
74152;SDS011;62505;46.070;14.492;2023-06-05T05:38:16;6.57;;;4.53;;
74152;SDS011;62505;46.070;14.492;2023-06-05T05:40:44;7.35;;;4.07;;
74152;SDS011;62505;46.070;14.492;2023-06-05T05:43:11;5.68;;;4.43;;
74152;SDS011;62505;46.070;14.492;2023-06-05T05:45:38;4.30;;;3.78;;
74152;SDS011;62505;46.070;14.492;2023-06-05T05:48:07;5.35;;;4.15;;
74152;SDS011;62505;46.070;14.492;2023-06-05T05:50:34;4.22;;;3.83;;
74152;SDS011;62505;46.070;14.492;2023-06-05T05:53:02;5.00;;;4.18;;
74152;SDS011;62505;46.070;14.492;2023-06-05T05:55:29;6.45;;;3.92;;
74152;SDS011;62505;46.070;14.492;2023-06-05T05:57:57;5.43;;;3.92;;
74152;SDS011;62505;46.070;14.492;2023-06-05T06:00:24;4.40;;;3.97;;
74152;SDS011;62505;46.070;14.492;2023-06-05T06:02:53;4.45;;;3.70;;
74152;SDS011;62505;46.070;14.492;2023-06-05T06:05:20;4.72;;;3.90;;
74152;SDS011;62505;46.070;14.492;2023-06-05T06:07:46;6.47;;;4.13;;
74152;SDS011;62505;46.070;14.492;2023-06-05T06:10:13;5.10;;;3.75;;
74152;SDS011;62505;46.070;14.492;2023-06-05T06:12:40;4.78;;;4.05;;
74152;SDS011;62505;46.070;14.492;2023-06-05T06:15:09;4.85;;;4.30;;
74152;SDS011;62505;46.070;14.492;2023-06-05T06:17:36;6.82;;;4.30;;
74152;SDS011;62505;46.070;14.492;2023-06-05T06:20:03;4.85;;;4.05;;
74152;SDS011;62505;46.070;14.492;2023-06-05T06:22:31;4.63;;;3.90;;
74152;SDS011;62505;46.070;14.492;2023-06-05T06:24:58;6.53;;;4.55;;
74152;SDS011;62505;46.070;14.492;2023-06-05T06:27:26;6.20;;;4.68;;
74152;SDS011;62505;46.070;14.492;2023-06-05T06:29:53;4.85;;;4.05;;
74152;SDS011;62505;46.070;14.492;2023-06-05T06:32:22;7.35;;;4.45;;
74152;SDS011;62505;46.070;14.492;2023-06-05T06:34:50;5.60;;;4.25;;
74152;SDS011;62505;46.070;14.492;2023-06-05T06:37:19;6.63;;;4.47;;
74152;SDS011;62505;46.070;14.492;2023-06-05T06:39:47;5.68;;;4.13;;
74152;SDS011;62505;46.070;14.492;2023-06-05T06:42:14;9.07;;;5.15;;
74152;SDS011;62505;46.070;14.492;2023-06-05T06:44:41;5.55;;;4.95;;
74152;SDS011;62505;46.070;14.492;2023-06-05T06:47:08;9.93;;;4.65;;
74152;SDS011;62505;46.070;14.492;2023-06-05T06:49:37;6.65;;;4.75;;
74152;SDS011;62505;46.070;14.492;2023-06-05T06:52:04;9.57;;;4.45;;
74152;SDS011;62505;46.070;14.492;2023-06-05T06:54:31;8.02;;;4.50;;
74152;SDS011;62505;46.070;14.492;2023-06-05T06:56:58;5.55;;;3.75;;
74152;SDS011;62505;46.070;14.492;2023-06-05T06:59:26;7.30;;;4.07;;
74152;SDS011;62505;46.070;14.492;2023-06-05T07:02:08;8.77;;;4.43;;
74152;SDS011;62505;46.070;14.492;2023-06-05T07:04:38;7.93;;;4.00;;
74152;SDS011;62505;46.070;14.492;2023-06-05T07:07:07;7.03;;;4.47;;
74152;SDS011;62505;46.070;14.492;2023-06-05T07:09:35;6.78;;;4.40;;
74152;SDS011;62505;46.070;14.492;2023-06-05T07:12:02;8.25;;;4.30;;
74152;SDS011;62505;46.070;14.492;2023-06-05T07:14:31;9.57;;;4.40;;
74152;SDS011;62505;46.070;14.492;2023-06-05T07:16:59;6.70;;;4.20;;
74152;SDS011;62505;46.070;14.492;2023-06-05T07:19:27;6.22;;;4.43;;
74152;SDS011;62505;46.070;14.492;2023-06-05T07:21:55;8.32;;;5.00;;
74152;SDS011;62505;46.070;14.492;2023-06-05T07:24:23;5.55;;;4.28;;
74152;SDS011;62505;46.070;14.492;2023-06-05T07:26:51;6.05;;;4.00;;
74152;SDS011;62505;46.070;14.492;2023-06-05T07:29:20;5.88;;;4.22;;
74152;SDS011;62505;46.070;14.492;2023-06-05T07:31:48;6.18;;;4.18;;
74152;SDS011;62505;46.070;14.492;2023-06-05T07:34:17;7.28;;;4.45;;
74152;SDS011;62505;46.070;14.492;2023-06-05T07:36:44;5.90;;;4.47;;
74152;SDS011;62505;46.070;14.492;2023-06-05T07:39:14;5.78;;;4.32;;
74152;SDS011;62505;46.070;14.492;2023-06-05T07:41:41;6.32;;;4.43;;
74152;SDS011;62505;46.070;14.492;2023-06-05T07:44:08;4.72;;;4.22;;
74152;SDS011;62505;46.070;14.492;2023-06-05T07:46:36;6.00;;;4.40;;
74152;SDS011;62505;46.070;14.492;2023-06-05T07:49:05;7.70;;;4.53;;
74152;SDS011;62505;46.070;14.492;2023-06-05T07:51:32;5.78;;;4.25;;
74152;SDS011;62505;46.070;14.492;2023-06-05T07:54:00;5.43;;;3.90;;
74152;SDS011;62505;46.070;14.492;2023-06-05T07:56:29;7.40;;;4.38;;
74152;SDS011;62505;46.070;14.492;2023-06-05T07:58:58;6.82;;;4.38;;
74152;SDS011;62505;46.070;14.492;2023-06-05T08:01:25;5.95;;;4.57;;
74152;SDS011;62505;46.070;14.492;2023-06-05T08:03:52;6.82;;;4.72;;
74152;SDS011;62505;46.070;14.492;2023-06-05T08:06:19;5.97;;;4.22;;
74152;SDS011;62505;46.070;14.492;2023-06-05T08:08:46;5.90;;;3.88;;
74152;SDS011;62505;46.070;14.492;2023-06-05T08:11:13;7.07;;;4.53;;
74152;SDS011;62505;46.070;14.492;2023-06-05T08:13:41;5.38;;;4.05;;
74152;SDS011;62505;46.070;14.492;2023-06-05T08:16:08;5.20;;;4.05;;
74152;SDS011;62505;46.070;14.492;2023-06-05T08:18:35;6.03;;;4.40;;
74152;SDS011;62505;46.070;14.492;2023-06-05T08:21:02;5.00;;;4.18;;
74152;SDS011;62505;46.070;14.492;2023-06-05T08:23:29;6.07;;;4.38;;
74152;SDS011;62505;46.070;14.492;2023-06-05T08:25:56;4.53;;;3.72;;
74152;SDS011;62505;46.070;14.492;2023-06-05T08:28:23;4.63;;;4.15;;
74152;SDS011;62505;46.070;14.492;2023-06-05T08:30:51;4.95;;;3.83;;
74152;SDS011;62505;46.070;14.492;2023-06-05T08:33:18;6.30;;;3.83;;
74152;SDS011;62505;46.070;14.492;2023-06-05T08:35:45;6.65;;;4.10;;
74152;SDS011;62505;46.070;14.492;2023-06-05T08:38:12;4.97;;;3.95;;
74152;SDS011;62505;46.070;14.492;2023-06-05T08:40:38;4.70;;;3.47;;
74152;SDS011;62505;46.070;14.492;2023-06-05T08:43:07;5.57;;;3.85;;
74152;SDS011;62505;46.070;14.492;2023-06-05T08:45:33;6.43;;;3.55;;
74152;SDS011;62505;46.070;14.492;2023-06-05T08:48:02;4.40;;;3.45;;
74152;SDS011;62505;46.070;14.492;2023-06-05T08:50:32;6.00;;;3.53;;
74152;SDS011;62505;46.070;14.492;2023-06-05T08:52:59;3.67;;;3.30;;
74152;SDS011;62505;46.070;14.492;2023-06-05T08:55:28;4.55;;;3.33;;
74152;SDS011;62505;46.070;14.492;2023-06-05T08:57:55;3.85;;;3.25;;
74152;SDS011;62505;46.070;14.492;2023-06-05T09:00:22;4.10;;;2.92;;
74152;SDS011;62505;46.070;14.492;2023-06-05T09:02:49;3.53;;;2.80;;
74152;SDS011;62505;46.070;14.492;2023-06-05T09:05:17;5.10;;;3.33;;
74152;SDS011;62505;46.070;14.492;2023-06-05T09:07:44;4.85;;;3.28;;
74152;SDS011;62505;46.070;14.492;2023-06-05T09:10:21;8.18;;;3.33;;
74152;SDS011;62505;46.070;14.492;2023-06-05T09:12:53;5.95;;;3.50;;
74152;SDS011;62505;46.070;14.492;2023-06-05T09:15:21;7.53;;;3.55;;
74152;SDS011;62505;46.070;14.492;2023-06-05T09:17:48;3.80;;;3.08;;
74152;SDS011;62505;46.070;14.492;2023-06-05T09:20:30;3.78;;;3.08;;
74152;SDS011;62505;46.070;14.492;2023-06-05T09:23:00;7.75;;;3.40;;
74152;SDS011;62505;46.070;14.492;2023-06-05T09:25:33;5.38;;;3.25;;
74152;SDS011;62505;46.070;14.492;2023-06-05T09:28:13;4.32;;;2.80;;
74152;SDS011;62505;46.070;14.492;2023-06-05T09:30:52;4.00;;;2.67;;
74152;SDS011;62505;46.070;14.492;2023-06-05T09:33:21;4.78;;;3.15;;
74152;SDS011;62505;46.070;14.492;2023-06-05T09:36:02;3.25;;;2.72;;
74152;SDS011;62505;46.070;14.492;2023-06-05T09:38:30;4.90;;;2.53;;
74152;SDS011;62505;46.070;14.492;2023-06-05T09:41:07;4.72;;;2.83;;
74152;SDS011;62505;46.070;14.492;2023-06-05T09:43:35;3.33;;;2.70;;
74152;SDS011;62505;46.070;14.492;2023-06-05T09:46:05;5.03;;;3.00;;
74152;SDS011;62505;46.070;14.492;2023-06-05T09:48:33;3.78;;;2.70;;
74152;SDS011;62505;46.070;14.492;2023-06-05T09:51:09;4.65;;;2.72;;
74152;SDS011;62505;46.070;14.492;2023-06-05T09:53:40;4.97;;;2.33;;
74152;SDS011;62505;46.070;14.492;2023-06-05T09:56:09;6.47;;;2.58;;
74152;SDS011;62505;46.070;14.492;2023-06-05T09:58:39;2.58;;;2.17;;
74152;SDS011;62505;46.070;14.492;2023-06-05T10:01:13;3.63;;;2.20;;
74152;SDS011;62505;46.070;14.492;2023-06-05T10:03:44;2.83;;;2.40;;
74152;SDS011;62505;46.070;14.492;2023-06-05T10:06:18;3.05;;;2.35;;
74152;SDS011;62505;46.070;14.492;2023-06-05T10:08:49;3.55;;;2.30;;
74152;SDS011;62505;46.070;14.492;2023-06-05T10:11:17;3.20;;;2.20;;
74152;SDS011;62505;46.070;14.492;2023-06-05T10:13:46;3.70;;;2.17;;
74152;SDS011;62505;46.070;14.492;2023-06-05T10:16:13;2.47;;;2.28;;
74152;SDS011;62505;46.070;14.492;2023-06-05T10:18:41;3.25;;;2.53;;
74152;SDS011;62505;46.070;14.492;2023-06-05T10:21:08;2.08;;;1.88;;
74152;SDS011;62505;46.070;14.492;2023-06-05T10:23:37;2.80;;;2.13;;
74152;SDS011;62505;46.070;14.492;2023-06-05T10:26:05;3.00;;;2.30;;
74152;SDS011;62505;46.070;14.492;2023-06-05T10:28:39;2.63;;;2.17;;
74152;SDS011;62505;46.070;14.492;2023-06-05T10:31:19;2.72;;;1.98;;
74152;SDS011;62505;46.070;14.492;2023-06-05T10:34:08;4.95;;;2.30;;
74152;SDS011;62505;46.070;14.492;2023-06-05T10:39:39;1.95;;;1.73;;
74152;SDS011;62505;46.070;14.492;2023-06-05T10:42:07;2.80;;;2.38;;
74152;SDS011;62505;46.070;14.492;2023-06-05T10:44:41;3.58;;;2.03;;
74152;SDS011;62505;46.070;14.492;2023-06-05T10:50:22;2.92;;;1.95;;
74152;SDS011;62505;46.070;14.492;2023-06-05T10:52:54;2.58;;;2.17;;
74152;SDS011;62505;46.070;14.492;2023-06-05T10:55:24;2.58;;;2.10;;
74152;SDS011;62505;46.070;14.492;2023-06-05T10:58:02;3.63;;;2.33;;
74152;SDS011;62505;46.070;14.492;2023-06-05T11:00:30;3.28;;;2.05;;
74152;SDS011;62505;46.070;14.492;2023-06-05T11:02:57;2.55;;;2.22;;
74152;SDS011;62505;46.070;14.492;2023-06-05T11:05:26;3.17;;;2.30;;
74152;SDS011;62505;46.070;14.492;2023-06-05T11:10:37;3.85;;;2.30;;
74152;SDS011;62505;46.070;14.492;2023-06-05T11:13:24;2.22;;;2.03;;
74152;SDS011;62505;46.070;14.492;2023-06-05T11:15:51;2.13;;;1.90;;
74152;SDS011;62505;46.070;14.492;2023-06-05T11:18:31;2.03;;;1.70;;
74152;SDS011;62505;46.070;14.492;2023-06-05T11:20:59;2.45;;;1.80;;
74152;SDS011;62505;46.070;14.492;2023-06-05T11:23:27;2.45;;;2.00;;
74152;SDS011;62505;46.070;14.492;2023-06-05T11:26:38;2.20;;;1.85;;
74152;SDS011;62505;46.070;14.492;2023-06-05T11:29:09;2.03;;;1.70;;
74152;SDS011;62505;46.070;14.492;2023-06-05T11:31:38;2.55;;;1.88;;
74152;SDS011;62505;46.070;14.492;2023-06-05T11:34:09;2.13;;;1.90;;
74152;SDS011;62505;46.070;14.492;2023-06-05T11:36:38;3.30;;;1.98;;
74152;SDS011;62505;46.070;14.492;2023-06-05T11:39:05;2.25;;;1.70;;
74152;SDS011;62505;46.070;14.492;2023-06-05T11:41:34;3.17;;;2.60;;
74152;SDS011;62505;46.070;14.492;2023-06-05T11:44:01;2.08;;;1.83;;
74152;SDS011;62505;46.070;14.492;2023-06-05T11:46:37;3.45;;;1.92;;
74152;SDS011;62505;46.070;14.492;2023-06-05T11:49:04;2.03;;;1.80;;
74152;SDS011;62505;46.070;14.492;2023-06-05T11:51:34;2.30;;;1.98;;
74152;SDS011;62505;46.070;14.492;2023-06-05T11:54:02;2.53;;;2.05;;
74152;SDS011;62505;46.070;14.492;2023-06-05T11:56:31;1.98;;;1.80;;
74152;SDS011;62505;46.070;14.492;2023-06-05T11:59:00;3.53;;;2.05;;
74152;SDS011;62505;46.070;14.492;2023-06-05T12:01:27;2.20;;;2.00;;
74152;SDS011;62505;46.070;14.492;2023-06-05T12:04:03;2.35;;;1.70;;
74152;SDS011;62505;46.070;14.492;2023-06-05T12:06:31;2.28;;;1.92;;
74152;SDS011;62505;46.070;14.492;2023-06-05T12:09:08;2.08;;;1.73;;
74152;SDS011;62505;46.070;14.492;2023-06-05T12:11:36;2.38;;;2.13;;
74152;SDS011;62505;46.070;14.492;2023-06-05T12:14:05;3.85;;;1.90;;
74152;SDS011;62505;46.070;14.492;2023-06-05T12:16:33;2.03;;;1.50;;
74152;SDS011;62505;46.070;14.492;2023-06-05T12:19:01;2.53;;;2.33;;
74152;SDS011;62505;46.070;14.492;2023-06-05T12:21:37;1.95;;;1.75;;
74152;SDS011;62505;46.070;14.492;2023-06-05T12:24:04;2.10;;;1.70;;
74152;SDS011;62505;46.070;14.492;2023-06-05T12:29:17;1.90;;;1.60;;
74152;SDS011;62505;46.070;14.492;2023-06-05T12:31:43;2.35;;;2.00;;
74152;SDS011;62505;46.070;14.492;2023-06-05T12:34:10;1.80;;;1.67;;
74152;SDS011;62505;46.070;14.492;2023-06-05T12:36:38;1.70;;;1.60;;
74152;SDS011;62505;46.070;14.492;2023-06-05T12:39:06;1.55;;;1.42;;
74152;SDS011;62505;46.070;14.492;2023-06-05T12:41:34;2.40;;;1.80;;
74152;SDS011;62505;46.070;14.492;2023-06-05T12:44:01;2.00;;;1.80;;
74152;SDS011;62505;46.070;14.492;2023-06-05T12:46:31;3.55;;;1.80;;
74152;SDS011;62505;46.070;14.492;2023-06-05T12:48:57;3.35;;;1.70;;
74152;SDS011;62505;46.070;14.492;2023-06-05T12:51:25;1.95;;;1.70;;
74152;SDS011;62505;46.070;14.492;2023-06-05T12:53:52;1.77;;;1.58;;
74152;SDS011;62505;46.070;14.492;2023-06-05T12:56:19;2.13;;;1.60;;
74152;SDS011;62505;46.070;14.492;2023-06-05T12:58:50;3.38;;;1.83;;
74152;SDS011;62505;46.070;14.492;2023-06-05T13:01:17;1.90;;;1.60;;
74152;SDS011;62505;46.070;14.492;2023-06-05T13:03:46;2.28;;;1.77;;
74152;SDS011;62505;46.070;14.492;2023-06-05T13:06:12;2.10;;;1.90;;
74152;SDS011;62505;46.070;14.492;2023-06-05T13:08:39;3.75;;;1.83;;
74152;SDS011;62505;46.070;14.492;2023-06-05T13:11:06;1.67;;;1.58;;
74152;SDS011;62505;46.070;14.492;2023-06-05T13:13:33;3.17;;;1.63;;
74152;SDS011;62505;46.070;14.492;2023-06-05T13:16:02;3.00;;;1.80;;
74152;SDS011;62505;46.070;14.492;2023-06-05T13:18:30;2.35;;;1.60;;
74152;SDS011;62505;46.070;14.492;2023-06-05T13:20:59;2.85;;;1.80;;
74152;SDS011;62505;46.070;14.492;2023-06-05T13:23:26;2.25;;;1.67;;
74152;SDS011;62505;46.070;14.492;2023-06-05T13:25:53;1.98;;;1.83;;
74152;SDS011;62505;46.070;14.492;2023-06-05T13:28:20;1.60;;;1.50;;
74152;SDS011;62505;46.070;14.492;2023-06-05T13:30:47;1.70;;;1.60;;
74152;SDS011;62505;46.070;14.492;2023-06-05T13:33:14;1.45;;;1.35;;
74152;SDS011;62505;46.070;14.492;2023-06-05T13:35:41;1.80;;;1.70;;
74152;SDS011;62505;46.070;14.492;2023-06-05T13:38:09;1.70;;;1.60;;
74152;SDS011;62505;46.070;14.492;2023-06-05T13:40:36;1.73;;;1.30;;
74152;SDS011;62505;46.070;14.492;2023-06-05T13:43:03;1.85;;;1.65;;
74152;SDS011;62505;46.070;14.492;2023-06-05T13:45:30;3.20;;;1.40;;
74152;SDS011;62505;46.070;14.492;2023-06-05T13:47:56;3.40;;;1.33;;
74152;SDS011;62505;46.070;14.492;2023-06-05T13:50:23;2.95;;;1.48;;
74152;SDS011;62505;46.070;14.492;2023-06-05T13:52:50;2.33;;;1.70;;
74152;SDS011;62505;46.070;14.492;2023-06-05T13:55:18;1.90;;;1.63;;
74152;SDS011;62505;46.070;14.492;2023-06-05T13:57:45;1.73;;;1.50;;
74152;SDS011;62505;46.070;14.492;2023-06-05T14:00:12;1.73;;;1.40;;
74152;SDS011;62505;46.070;14.492;2023-06-05T14:02:40;1.58;;;1.48;;
74152;SDS011;62505;46.070;14.492;2023-06-05T14:05:07;1.55;;;1.30;;
74152;SDS011;62505;46.070;14.492;2023-06-05T14:07:36;2.38;;;1.48;;
74152;SDS011;62505;46.070;14.492;2023-06-05T14:10:03;1.70;;;1.30;;
74152;SDS011;62505;46.070;14.492;2023-06-05T14:12:32;2.08;;;1.88;;
74152;SDS011;62505;46.070;14.492;2023-06-05T14:14:59;1.60;;;1.50;;
74152;SDS011;62505;46.070;14.492;2023-06-05T14:17:26;1.38;;;1.27;;
74152;SDS011;62505;46.070;14.492;2023-06-05T14:19:52;1.55;;;1.40;;
74152;SDS011;62505;46.070;14.492;2023-06-05T14:22:20;2.53;;;1.63;;
74152;SDS011;62505;46.070;14.492;2023-06-05T14:24:47;2.22;;;1.70;;
74152;SDS011;62505;46.070;14.492;2023-06-05T14:27:14;2.55;;;1.70;;
74152;SDS011;62505;46.070;14.492;2023-06-05T14:29:43;2.70;;;1.70;;
74152;SDS011;62505;46.070;14.492;2023-06-05T14:32:10;1.73;;;1.45;;
74152;SDS011;62505;46.070;14.492;2023-06-05T14:34:37;1.67;;;1.38;;
74152;SDS011;62505;46.070;14.492;2023-06-05T14:37:04;1.30;;;1.20;;
74152;SDS011;62505;46.070;14.492;2023-06-05T14:39:34;1.55;;;1.30;;
74152;SDS011;62505;46.070;14.492;2023-06-05T14:42:01;1.60;;;1.40;;
74152;SDS011;62505;46.070;14.492;2023-06-05T14:44:28;2.75;;;1.30;;
74152;SDS011;62505;46.070;14.492;2023-06-05T14:46:56;1.70;;;1.48;;
74152;SDS011;62505;46.070;14.492;2023-06-05T14:49:23;1.92;;;1.52;;
74152;SDS011;62505;46.070;14.492;2023-06-05T14:51:50;2.42;;;1.40;;